createdAt,value
2023-02-09T09:26:14.167Z,10.73
2023-02-09T09:29:16.637Z,10.30
2023-02-09T09:32:24.626Z,9.82
2023-02-09T09:35:27.897Z,9.65
2023-02-09T09:38:30.742Z,10.02
2023-02-09T09:41:37.513Z,9.27
2023-02-09T09:44:47.305Z,9.10
2023-02-09T09:47:50.635Z,8.82
2023-02-09T09:50:56.969Z,9.35
2023-02-09T09:54:02.878Z,9.45
2023-02-09T09:57:19.340Z,8.98
2023-02-09T10:00:24.643Z,9.63
2023-02-09T10:03:27.702Z,9.10
2023-02-09T10:06:34.733Z,9.55
2023-02-09T10:09:43.214Z,8.45
2023-02-09T10:12:50.348Z,8.18
2023-02-09T10:15:54.653Z,8.60
2023-02-09T10:18:58.996Z,8.85
2023-02-09T10:22:01.533Z,9.63
2023-02-09T10:25:24.812Z,8.82
2023-02-09T10:28:31.045Z,8.30
2023-02-09T10:31:36.318Z,7.80
2023-02-09T10:34:45.505Z,9.27
2023-02-09T10:37:48.090Z,7.43
2023-02-09T10:40:51.365Z,8.23
2023-02-09T10:43:55.219Z,8.10
2023-02-09T10:47:11.315Z,7.88
2023-02-09T10:50:18.567Z,9.00
2023-02-09T10:53:24.963Z,8.10
2023-02-09T10:56:29.353Z,7.63
2023-02-09T10:59:36.159Z,8.48
2023-02-09T11:02:41.225Z,8.05
2023-02-09T11:05:45.761Z,8.10
2023-02-09T11:08:53.972Z,8.60
2023-02-09T11:11:56.731Z,7.07
2023-02-09T11:15:01.375Z,7.78
2023-02-09T11:18:07.492Z,7.88
2023-02-09T11:21:15.950Z,8.10
2023-02-09T11:24:32.161Z,7.75
2023-02-09T11:27:46.824Z,7.70
2023-02-09T11:31:04.471Z,7.93
2023-02-09T11:34:18.440Z,8.38
2023-02-09T11:37:30.812Z,8.02
2023-02-09T11:40:37.224Z,6.97
2023-02-09T11:43:43.044Z,8.15
2023-02-09T11:46:49.293Z,6.93
2023-02-09T11:49:54.756Z,7.65
2023-02-09T11:53:00.330Z,7.63
2023-02-09T11:56:06.350Z,7.38
2023-02-09T11:59:16.106Z,7.57
2023-02-09T12:02:38.499Z,7.97
2023-02-09T12:05:44.785Z,7.57
2023-02-09T12:09:00.313Z,7.20
2023-02-09T12:12:31.361Z,7.85
2023-02-09T12:15:52.944Z,7.82
2023-02-09T12:23:11.873Z,8.27
2023-02-09T12:26:42.697Z,6.88
2023-02-09T12:29:54.285Z,7.85
2023-02-09T12:33:42.655Z,7.32
2023-02-09T12:37:28.666Z,6.25
2023-02-09T12:49:33.538Z,6.38
2023-02-09T12:52:36.046Z,7.45
2023-02-09T12:55:39.904Z,7.70
2023-02-09T12:58:55.739Z,7.38
2023-02-09T13:02:13.538Z,8.27
2023-02-09T13:05:19.446Z,7.70
2023-02-09T13:08:48.480Z,7.70
2023-02-09T13:11:56.622Z,7.55
2023-02-09T13:14:59.143Z,7.20
2023-02-09T13:18:09.917Z,7.13
2023-02-09T13:21:21.693Z,8.35
2023-02-09T13:24:33.826Z,8.52
2023-02-09T13:27:48.443Z,7.97
2023-02-09T13:30:50.968Z,7.50
2023-02-09T13:33:56.899Z,8.07
2023-02-09T13:37:10.147Z,7.35
2023-02-09T13:40:18.753Z,7.15
2023-02-09T13:43:28.182Z,7.15
2023-02-09T13:46:35.174Z,7.65
2023-02-09T13:49:37.836Z,7.38
2023-02-09T13:52:40.964Z,7.22
2023-02-09T13:55:45.500Z,7.97
2023-02-09T13:58:50.359Z,7.05
2023-02-09T14:01:55.755Z,6.90
2023-02-09T14:05:03.032Z,7.57
2023-02-09T14:08:06.478Z,6.20
2023-02-09T14:11:33.233Z,6.75
2023-02-09T14:15:22.271Z,6.75
2023-02-09T14:18:34.304Z,6.93
2023-02-09T14:21:46.693Z,7.40
2023-02-09T14:24:49.162Z,7.22
2023-02-09T14:27:52.415Z,7.63
2023-02-09T14:30:56.347Z,6.18
2023-02-09T14:33:58.915Z,7.38
2023-02-09T14:37:05.111Z,6.50
2023-02-09T14:40:25.503Z,6.45
2023-02-09T14:43:28.059Z,7.05
2023-02-09T14:46:48.088Z,7.20
2023-02-09T14:49:50.560Z,7.10
2023-02-09T14:52:55.232Z,7.43
2023-02-09T14:55:58.189Z,6.78
2023-02-09T14:59:00.826Z,7.40
2023-02-09T15:02:16.640Z,7.45
2023-02-09T15:05:20.178Z,6.90
2023-02-09T15:08:25.012Z,6.65
2023-02-09T15:11:42.844Z,7.07
2023-02-09T15:14:47.292Z,7.28
2023-02-09T15:17:51.760Z,7.50
2023-02-09T15:20:54.514Z,7.75
2023-02-09T15:23:57.019Z,6.75
2023-02-09T15:26:59.569Z,7.43
2023-02-09T15:30:04.824Z,7.15
2023-02-09T15:33:12.276Z,7.65
